LTFJLTFE

Guest
Details From LTFJ - SABIHA GOKCEN
To LTFE - MILAS BODRUM
Flight Number -
Tags generated
Created
Modified
Stats Distance 245 nm / 455 km
Max Altitude 28,600 ft / 8,717 m
Waypoints 5
Social Downloads 2
Likes 0
Share VATSIM

Download

Looking for another format? Having issues loading an existing format? Contact us
Advertisement - Login to hide

Notes

Basic altitude profile: - Ascent Rate: 2500ft/min - Ascent Speed: 250kts - Cruise Altitude: 35000ft - Cruise Speed: 420kts - Descent Rate: 1500ft/min - Descent Speed: 250kts Options: - Use NATs: yes - Use PACOTS: yes - Use low airways: yes - Use high airways: no

Route

LTFJ KUDAK L854 KULAR LTFE

ID Type Via Altitude Latitude Longitude Leg Dist Tot Dist Heading (true) Name
O LTFJ APT - 0 ft / 0 m 40.89855˚ 29.30922˚ - 0 nm - SABIHA GOKCEN
KUDAK FIX - 28,600 ft / 8,717 m 39.29889˚ 28.27667˚ 107 nm 107 nm 207° / 206° -
ESKIN FIX L854 (AWY-LO) 25,200 ft / 7,681 m 39.05000˚ 28.39806˚ 15 nm 123 nm 159° / 159° -
KULAR FIX L854 (AWY-LO) 23,500 ft / 7,163 m 38.58222˚ 28.63278˚ 30 nm 153 nm 159° / 159° -
O LTFE APT - 0 ft / 0 m 37.25112˚ 27.66535˚ 92 nm 245 nm 210° / 210° MILAS BODRUM

Altitude Profile

Advertisement - Login to hide

Weather


0- 5 10 15 20 25 30 35+ Temperature / ° C

Clouds and Precipitation
Forecast for 2018-05-24 06:00 UTC. Updated 3 hours ago

Ground ~20,000 ft ~40,000 ft Winds

LTFJ

Details ICAO LTFJ (SAW)
Name SABIHA GOKCEN
Region Turkey
Timezone Europe/Istanbul (UTC+3.0)
Stats Elevation 312 ft / 95 m (AMSL)
Location 40.898552° 29.309221°
Runways 1
Magnetic Variation 5.517° E

METAR

LTFJ 240820Z 04011KT 9999 SCT016 BKN023 23/16 Q1014 NOSIG

Decode

TAF

Not found

Departure Runways

ID Width Length Bearing (true) Bearing (mag) Surface Threshold Offset Overrun Length
06 148 ft / 45 m 9,690 ft / 2,953 m 64.01° 58.49° Concrete 0 ft / 0 m 197 ft / 60 m
24 148 ft / 45 m 9,690 ft / 2,953 m 244.03° 238.51° Concrete 0 ft / 0 m 197 ft / 60 m

LTFE

Details ICAO LTFE (BJV)
Name MILAS BODRUM
Region Turkey
Timezone Europe/Istanbul (UTC+3.0)
Stats Elevation 21 ft / 6 m (AMSL)
Location 37.251115° 27.665350°
Runways 1
Magnetic Variation 4.873° E

METAR

LTFE 240820Z 25011KT 9999 FEW035 28/16 Q1011 NOSIG

Decode

TAF

Not found

Destination Runways

ID Width Length Bearing (true) Bearing (mag) Surface Threshold Offset Overrun Length
11 148 ft / 45 m 9,786 ft / 2,983 m 106.68° 101.81° Concrete 0 ft / 0 m 208 ft / 63 m
29 148 ft / 45 m 9,786 ft / 2,983 m 286.70° 281.83° Concrete 0 ft / 0 m 201 ft / 61 m

Approach Navaids

Runway Type Ident Frequency Range Bearing (true) Bearing (mag) Slope Elevation
11 Localiser IBDR 109.30 MHz 18 nm / 33 km 106.64° 101.77° - 21 ft / 6 m (AMSL)
11 Glidescope IBDR 109.30 MHz 10 nm / 19 km 106.69° 101.82° 3.30° 21 ft / 6 m (AMSL)
29 Localiser IGML 109.10 MHz 18 nm / 33 km 286.68° 281.81° - 21 ft / 6 m (AMSL)
29 Glidescope IGML 109.10 MHz 10 nm / 19 km 286.69° 281.82° 3.90° 21 ft / 6 m (AMSL)

Popular Alternatives